Time;durP1;ratioP1;P1;durP2;ratioP2;P2;SDS_P1;SDS_P2;PMS_P1;PMS_P2;Temp;Humidity;BMP_temperature;BMP_pressure;BME280_temperature;BME280_humidity;BME280_pressure;Samples;Min_cycle;Max_cycle;Signal;HPM_P1;HPM_P2
2022/01/21 00:01:38;;;;;;;20.40;3.33;;;;;;;4.32;50.05;102155.13;6004813;23;123424;-84
2022/01/21 00:04:27;;;;;;;14.20;3.22;;;;;;;4.29;49.85;102158.59;6005627;23;119070;-83
2022/01/21 00:06:56;;;;;;;14.10;2.80;;;;;;;4.30;50.25;102171.81;5975052;23;119246;-83
2022/01/21 00:09:24;;;;;;;13.90;2.92;;;;;;;3.95;50.07;102106.19;5923643;23;119540;-83
2022/01/21 00:11:50;;;;;;;13.98;2.70;;;;;;;4.15;50.15;102144.84;5995936;23;119458;-85
2022/01/21 00:14:16;;;;;;;16.88;3.05;;;;;;;3.97;49.91;102093.81;5947532;23;121733;-83
2022/01/21 00:16:43;;;;;;;15.70;3.10;;;;;;;4.20;50.23;102122.78;5947250;23;119893;-84
2022/01/21 00:19:14;;;;;;;13.38;2.97;;;;;;;4.34;50.25;102147.41;5971982;23;122018;-84
2022/01/21 00:30:17;;;;;;;17.02;3.63;;;;;;;4.12;50.76;102094.00;5952956;23;121990;-85
2022/01/21 00:32:45;;;;;;;20.80;4.18;;;;;;;4.13;49.97;102085.47;5996916;23;119214;-85
2022/01/21 00:35:12;;;;;;;13.70;3.70;;;;;;;4.26;49.84;102100.38;5971797;23;119972;-82
2022/01/21 00:37:39;;;;;;;14.00;2.80;;;;;;;4.73;50.39;102166.84;5972741;23;119263;-84
2022/01/21 00:40:08;;;;;;;19.05;4.38;;;;;;;4.52;49.89;102134.00;5972622;23;119690;-85
2022/01/21 00:45:11;;;;;;;15.40;3.60;;;;;;;4.56;49.95;102126.66;6029466;23;119430;-84
2022/01/21 00:47:40;;;;;;;20.88;4.25;;;;;;;4.68;50.02;102145.41;6033056;23;119436;-83
2022/01/21 00:50:06;;;;;;;18.25;4.45;;;;;;;4.83;50.30;102171.59;6054186;23;121763;-85
2022/01/21 00:52:32;;;;;;;16.38;3.80;;;;;;;4.53;50.01;102130.91;6035703;23;119354;-85
2022/01/21 00:54:58;;;;;;;16.55;3.90;;;;;;;4.71;49.84;102171.84;6030193;23;121804;-84
2022/01/21 00:57:24;;;;;;;13.57;3.72;;;;;;;4.63;49.95;102162.06;6030598;23;119086;-84
2022/01/21 00:59:50;;;;;;;19.63;3.75;;;;;;;4.59;50.06;102161.25;6031406;23;121170;-85
2022/01/21 01:02:17;;;;;;;14.48;3.20;;;;;;;4.36;50.18;102122.56;6054182;23;119961;-84
2022/01/21 01:04:43;;;;;;;20.52;3.67;;;;;;;4.74;50.46;102198.31;6054605;23;119155;-82
2022/01/21 01:07:11;;;;;;;17.48;3.67;;;;;;;4.45;50.56;102151.00;6031703;23;119265;-84
2022/01/21 01:09:37;;;;;;;15.68;3.85;;;;;;;4.41;50.42;102146.69;6054913;23;120207;-84
2022/01/21 01:12:30;;;;;;;17.55;3.15;;;;;;;4.26;50.22;102132.97;6006161;23;119496;-85
2022/01/21 01:20:25;;;;;;;19.45;4.00;;;;;;;4.35;51.13;102140.81;6055286;23;120351;-85
2022/01/21 01:23:06;;;;;;;15.75;3.60;;;;;;;4.37;50.99;102137.72;6005643;23;121807;-85
2022/01/21 01:28:19;;;;;;;20.65;3.85;;;;;;;4.32;50.90;102100.81;6032010;23;120695;-84
2022/01/21 01:30:45;;;;;;;19.75;3.97;;;;;;;4.63;50.47;102143.03;6029193;23;121913;-85
2022/01/21 01:33:21;;;;;;;17.02;4.07;;;;;;;4.59;50.53;102125.91;6006955;23;119154;-84
2022/01/21 01:35:50;;;;;;;18.27;4.03;;;;;;;4.70;50.48;102124.06;6058097;23;120753;-84
2022/01/21 01:39:04;;;;;;;20.17;3.78;;;;;;;4.45;50.48;102074.13;6054201;23;119363;-85
2022/01/21 01:41:15;;;;;;;13.05;3.47;;;;;;;4.48;50.41;102057.09;6027960;23;120787;-83
2022/01/21 01:49:27;;;;;;;20.17;4.05;;;;;;;4.72;50.47;102099.22;6005257;23;121374;-83
2022/01/21 01:51:59;;;;;;;25.35;3.40;;;;;;;4.77;50.34;102071.72;6053234;23;119837;-85
2022/01/21 01:54:28;;;;;;;18.67;2.83;;;;;;;4.94;50.53;102103.69;6005469;23;119402;-84
2022/01/21 01:56:57;;;;;;;17.85;3.00;;;;;;;4.62;50.52;102051.78;6005340;23;120835;-82
2022/01/21 01:59:23;;;;;;;20.50;2.83;;;;;;;4.69;50.49;102068.13;6056200;23;120213;-83
2022/01/21 02:01:55;;;;;;;13.82;3.25;;;;;;;5.15;50.83;102133.78;6027444;23;121774;-84
2022/01/21 02:04:22;;;;;;;16.33;3.03;;;;;;;5.08;50.53;102116.63;6004001;23;123758;-84
2022/01/21 02:06:48;;;;;;;17.40;2.97;;;;;;;5.10;50.26;102119.75;6052075;23;119278;-84
2022/01/21 02:09:17;;;;;;;17.45;3.03;;;;;;;5.16;50.88;102112.78;6051519;23;119193;-84
2022/01/21 02:11:43;;;;;;;16.77;2.83;;;;;;;4.74;51.25;102051.50;6051410;23;119991;-83
2022/01/21 02:14:14;;;;;;;13.88;2.63;;;;;;;5.29;51.18;102132.31;6003546;23;119105;-85
2022/01/21 02:22:17;;;;;;;16.13;2.78;;;;;;;5.29;51.66;102110.56;6054846;23;120114;-84
2022/01/21 02:24:49;;;;;;;17.88;3.08;;;;;;;5.50;51.36;102127.81;6049898;23;122940;-83
2022/01/21 02:27:15;;;;;;;19.98;3.08;;;;;;;5.34;51.33;102091.94;6002582;23;119067;-83
2022/01/21 02:29:51;;;;;;;16.27;3.28;;;;;;;5.43;51.30;102105.97;6026382;23;121832;-82
2022/01/21 02:32:21;;;;;;;19.50;2.92;;;;;;;5.07;51.30;102038.91;6002243;23;123905;-83
2022/01/21 02:34:49;;;;;;;12.68;2.72;;;;;;;5.44;51.15;102095.84;6025420;23;119157;-83
2022/01/21 02:37:17;;;;;;;16.65;2.88;;;;;;;5.65;51.68;102127.88;6026188;23;122424;-83
2022/01/21 02:39:44;;;;;;;17.30;3.45;;;;;;;5.22;51.32;102054.16;6050074;23;120000;-83
2022/01/21 02:42:11;;;;;;;13.35;2.92;;;;;;;5.22;51.32;102059.59;6026174;23;119565;-84
2022/01/21 02:44:38;;;;;;;16.08;2.90;;;;;;;5.55;51.11;102113.81;6029073;23;119263;-82
2022/01/21 02:47:05;;;;;;;13.63;2.80;;;;;;;5.38;51.19;102087.28;6025919;23;119392;-83
2022/01/21 02:49:37;;;;;;;13.82;2.75;;;;;;;5.79;50.96;102161.41;6003511;23;120679;-82
2022/01/21 02:52:03;;;;;;;16.83;3.28;;;;;;;5.61;50.99;102137.97;6024949;23;123167;-84
2022/01/21 02:54:33;;;;;;;13.65;2.55;;;;;;;5.36;51.12;102095.03;6001184;23;119720;-84
2022/01/21 02:57:01;;;;;;;15.50;2.72;;;;;;;5.52;50.65;102116.53;6048646;23;119484;-83
2022/01/21 02:59:30;;;;;;;20.08;3.25;;;;;;;5.67;50.93;102153.53;6025053;23;122509;-84
2022/01/21 03:01:59;;;;;;;10.95;2.78;;;;;;;5.67;50.80;102141.88;6026021;23;119653;-84
2022/01/21 03:07:12;;;;;;;15.93;2.42;;;;;;;5.32;50.49;102105.13;6054371;23;123012;-84
2022/01/21 03:09:38;;;;;;;12.73;2.45;;;;;;;5.83;50.11;102186.72;6050232;23;121281;-84
2022/01/21 03:12:05;;;;;;;12.85;2.60;;;;;;;5.66;49.40;102148.47;6001054;23;121788;-82
2022/01/21 03:14:31;;;;;;;12.80;2.22;;;;;;;5.63;50.12;102152.75;6049653;23;119228;-83
2022/01/21 03:16:59;;;;;;;17.10;3.28;;;;;;;5.55;50.11;102130.16;6001626;23;121282;-85
2022/01/21 03:19:25;;;;;;;11.75;2.63;;;;;;;5.62;49.72;102153.91;6001132;23;121740;-84
2022/01/21 03:21:52;;;;;;;15.45;2.88;;;;;;;5.38;49.81;102119.16;6001682;23;119403;-84
2022/01/21 03:24:18;;;;;;;12.70;2.67;;;;;;;5.46;50.08;102132.44;6001412;23;121847;-84
2022/01/21 03:26:44;;;;;;;13.25;2.30;;;;;;;5.80;49.99;102183.97;6001064;23;121477;-84
2022/01/21 03:29:10;;;;;;;17.00;2.70;;;;;;;5.36;49.29;102116.81;6055452;23;119239;-83
2022/01/21 03:31:40;;;;;;;12.73;2.35;;;;;;;5.48;49.42;102146.44;6025174;23;119891;-83
2022/01/21 03:34:06;;;;;;;17.33;2.75;;;;;;;5.73;49.75;102183.94;6002097;23;119081;-82
2022/01/21 03:36:36;;;;;;;19.13;3.35;;;;;;;5.32;49.62;102126.91;6050415;23;121931;-82
2022/01/21 03:39:02;;;;;;;12.52;2.67;;;;;;;5.32;49.28;102132.34;6002069;23;123012;-83
2022/01/21 03:41:29;;;;;;;12.63;2.53;;;;;;;5.53;49.24;102165.16;6049959;23;119265;-82
2022/01/21 03:43:56;;;;;;;14.05;2.70;;;;;;;5.43;48.74;102149.50;6002755;23;120883;-83
2022/01/21 03:46:22;;;;;;;9.18;2.03;;;;;;;5.68;48.85;102198.69;6003275;23;121870;-81
2022/01/21 03:48:50;;;;;;;10.23;2.00;;;;;;;5.18;49.40;102115.91;6007716;23;119431;-84
2022/01/21 03:51:19;;;;;;;12.77;2.67;;;;;;;5.22;49.36;102116.75;6026711;23;119581;-83
2022/01/21 03:53:48;;;;;;;14.70;2.83;;;;;;;5.32;49.12;102137.78;6026746;23;119209;-81
2022/01/21 03:56:15;;;;;;;13.95;2.30;;;;;;;5.27;49.74;102138.16;6003445;23;121176;-83
2022/01/21 03:58:41;;;;;;;14.25;2.25;;;;;;;5.47;49.38;102179.50;6025613;23;119389;-83
2022/01/21 04:01:10;;;;;;;11.90;2.47;;;;;;;5.37;49.08;102172.81;6051131;23;119334;-83
2022/01/21 04:03:36;;;;;;;11.52;2.40;;;;;;;5.05;49.03;102123.59;6003437;23;121819;-82
2022/01/21 04:06:03;;;;;;;13.02;2.13;;;;;;;5.40;48.85;102176.69;6027016;23;119502;-80
2022/01/21 04:08:29;;;;;;;15.88;2.70;;;;;;;5.16;49.48;102150.88;6052555;23;118955;-83
2022/01/21 04:11:00;;;;;;;10.10;2.35;;;;;;;5.32;49.44;102170.44;6054750;23;121069;-83
2022/01/21 04:13:26;;;;;;;8.77;2.05;;;;;;;5.20;48.73;102157.94;6026924;23;119452;-83
2022/01/21 04:15:58;;;;;;;11.65;2.35;;;;;;;5.28;48.85;102169.63;6002946;23;121135;-81
2022/01/21 04:18:24;;;;;;;10.48;2.20;;;;;;;5.01;48.96;102130.19;6049798;23;119946;-83
2022/01/21 04:20:57;;;;;;;13.10;3.00;;;;;;;5.15;48.99;102162.91;6050109;23;119254;-83
2022/01/21 04:23:27;;;;;;;9.30;2.10;;;;;;;5.15;49.20;102174.56;6027159;23;122563;-82
2022/01/21 04:25:53;;;;;;;10.40;2.05;;;;;;;5.32;49.32;102213.97;6052054;23;120396;-83
2022/01/21 04:28:22;;;;;;;9.65;2.33;;;;;;;5.10;48.80;102190.47;6051430;23;119324;-84
2022/01/21 04:30:49;;;;;;;10.23;2.10;;;;;;;4.94;48.76;102172.44;6050246;23;122092;-85
2022/01/21 04:33:21;;;;;;;12.13;2.13;;;;;;;4.96;48.88;102184.88;6031741;23;119197;-84
2022/01/21 04:35:57;;;;;;;12.02;2.30;;;;;;;4.94;49.28;102179.81;6050671;23;119493;-84
2022/01/21 04:38:24;;;;;;;12.30;2.45;;;;;;;4.89;48.94;102174.72;6003268;23;123035;-83
2022/01/21 04:41:17;;;;;;;10.73;2.58;;;;;;;4.73;48.63;102158.69;6028582;23;119617;-83
2022/01/21 04:49:06;;;;;;;12.75;2.50;;;;;;;4.89;49.09;102196.50;6052968;23;119311;-81
2022/01/21 04:51:40;;;;;;;10.13;2.30;;;;;;;4.86;48.48;102202.69;6027825;23;119268;-83
2022/01/21 04:54:09;;;;;;;;;;;;;;;5.13;48.65;102239.44;6052443;23;123075;-83
2022/01/21 04:56:38;;;;;;;9.65;2.08;;;;;;;4.84;49.16;102186.75;6032869;23;120105;-83
2022/01/21 04:59:06;;;;;;;13.02;2.30;;;;;;;4.75;49.13;102180.06;6003744;23;121919;-84
2022/01/21 05:01:35;;;;;;;10.75;2.10;;;;;;;5.03;48.77;102223.06;6028301;23;119070;-83
2022/01/21 05:04:02;;;;;;;8.55;1.67;;;;;;;4.83;49.09;102193.34;6003869;23;122080;-83
2022/01/21 05:06:29;;;;;;;11.55;2.30;;;;;;;5.06;48.66;102233.19;6028177;23;119961;-84
2022/01/21 05:08:56;;;;;;;8.65;2.30;;;;;;;4.79;48.91;102197.19;6004292;23;119107;-82
2022/01/21 05:11:24;;;;;;;13.43;2.70;;;;;;;4.91;48.82;102211.28;6028788;23;119080;-82
2022/01/21 05:13:59;;;;;;;11.55;2.10;;;;;;;4.79;49.14;102184.38;6052780;23;119410;-83
2022/01/21 05:16:38;;;;;;;11.30;2.25;;;;;;;4.84;49.28;102202.28;6053401;23;119713;-84
2022/01/21 05:19:14;;;;;;;13.73;2.45;;;;;;;4.69;49.10;102186.97;6033890;23;119136;-83
2022/01/21 05:21:49;;;;;;;12.50;2.30;;;;;;;4.85;48.75;102206.56;6052666;23;119541;-84
2022/01/21 05:24:21;;;;;;;9.77;2.08;;;;;;;5.14;48.38;102245.69;6004207;23;122452;-83
2022/01/21 05:26:56;;;;;;;9.48;2.33;;;;;;;4.87;48.08;102213.19;6053197;23;121984;-83
2022/01/21 05:29:31;;;;;;;13.27;2.17;;;;;;;4.62;48.88;102176.81;6028418;23;119374;-83
2022/01/21 05:32:15;;;;;;;14.13;2.65;;;;;;;4.67;48.63;102190.06;6052113;23;119670;-81
2022/01/21 05:34:55;;;;;;;8.85;2.15;;;;;;;4.82;48.83;102210.81;6028026;23;122578;-83
2022/01/21 05:37:47;;;;;;;11.23;2.22;;;;;;;4.88;48.74;102228.34;6028630;23;119032;-83
2022/01/21 05:40:46;;;;;;;10.75;2.40;;;;;;;4.83;49.62;102214.31;6035066;23;119172;-84
2022/01/21 05:43:33;;;;;;;8.88;1.80;;;;;;;4.62;49.22;102185.75;6006029;23;123157;-83
2022/01/21 05:49:27;;;;;;;9.43;1.98;;;;;;;5.04;48.79;102247.16;6053959;23;120174;-84
2022/01/21 05:52:17;;;;;;;9.60;2.17;;;;;;;5.01;49.05;102241.69;6032001;23;119141;-84
2022/01/21 05:55:01;;;;;;;10.07;2.10;;;;;;;4.99;49.14;102238.56;6054144;23;120822;-83
2022/01/21 05:57:44;;;;;;;10.02;2.28;;;;;;;5.04;49.12;102258.03;6007689;23;121890;-82
2022/01/21 06:00:16;;;;;;;6.60;1.80;;;;;;;4.92;49.10;102237.31;6053517;23;119158;-84
2022/01/21 06:02:45;;;;;;;8.35;2.25;;;;;;;4.80;48.81;102226.72;6052873;23;121154;-84
2022/01/21 06:05:13;;;;;;;9.43;2.10;;;;;;;4.63;48.95;102208.28;6032771;23;121664;-84
2022/01/21 06:07:41;;;;;;;11.20;1.90;;;;;;;4.87;49.46;102237.66;6028000;23;119258;-84
2022/01/21 06:10:08;;;;;;;11.60;1.60;;;;;;;4.59;48.46;102191.94;6052236;23;123853;-84
2022/01/21 06:12:34;;;;;;;9.45;2.05;;;;;;;4.83;48.43;102225.19;6052497;23;119455;-82
2022/01/21 06:15:00;;;;;;;11.65;2.05;;;;;;;4.58;48.92;102186.88;6053690;23;119153;-84
2022/01/21 06:17:27;;;;;;;7.72;1.83;;;;;;;4.61;48.84;102211.34;6052814;23;122725;-84
2022/01/21 06:19:53;;;;;;;8.43;1.98;;;;;;;4.63;48.94;102210.97;6029408;23;119743;-83
2022/01/21 06:22:19;;;;;;;11.40;2.33;;;;;;;4.75;48.75;102240.66;6028154;23;122164;-83
2022/01/21 06:24:48;;;;;;;8.18;2.08;;;;;;;4.63;49.08;102227.28;6053600;23;119349;-85
2022/01/21 06:27:15;;;;;;;10.48;2.42;;;;;;;4.51;48.94;102216.69;6033490;23;119212;-84
2022/01/21 06:29:43;;;;;;;6.88;1.67;;;;;;;4.60;49.27;102225.31;6028761;23;122665;-85
2022/01/21 06:32:12;;;;;;;11.32;1.77;;;;;;;4.74;49.13;102243.72;6028486;23;119353;-84
2022/01/21 06:34:38;;;;;;;8.95;1.83;;;;;;;4.53;49.20;102223.31;6029055;23;121566;-84
2022/01/21 06:37:04;;;;;;;7.20;1.65;;;;;;;4.62;48.86;102233.88;6004895;23;122679;-84
2022/01/21 06:39:30;;;;;;;8.32;2.00;;;;;;;4.62;48.88;102236.59;6028499;23;119415;-83
2022/01/21 06:41:56;;;;;;;9.45;1.80;;;;;;;4.48;48.75;102220.13;6053471;23;119107;-84
2022/01/21 06:44:22;;;;;;;9.10;2.35;;;;;;;4.56;48.86;102224.50;6051762;23;118937;-83
2022/01/21 06:46:48;;;;;;;9.40;2.58;;;;;;;4.65;49.20;102224.19;6052570;23;119267;-83
2022/01/21 06:49:14;;;;;;;9.18;2.38;;;;;;;4.68;48.23;102240.53;6058728;23;119371;-83
2022/01/21 06:51:40;;;;;;;7.57;2.13;;;;;;;4.52;48.65;102215.53;6051876;23;119854;-82
2022/01/21 06:54:05;;;;;;;8.40;1.98;;;;;;;4.77;48.89;102254.66;6052661;23;121990;-84
2022/01/21 06:56:32;;;;;;;11.38;2.30;;;;;;;4.49;48.47;102221.69;6027076;23;122869;-84
2022/01/21 06:58:58;;;;;;;6.63;1.70;;;;;;;4.63;48.78;102235.44;6028630;23;120077;-84
2022/01/21 07:01:28;;;;;;;9.55;1.80;;;;;;;4.79;49.09;102257.00;6027968;23;123030;-84
2022/01/21 07:03:54;;;;;;;11.98;2.55;;;;;;;4.47;49.30;102213.13;6004269;23;123073;-82
2022/01/21 07:06:21;;;;;;;13.50;2.50;;;;;;;4.49;48.81;102227.13;6029632;23;119409;-82
2022/01/21 07:08:47;;;;;;;10.63;2.17;;;;;;;4.57;49.04;102248.59;6076835;23;119212;-84
2022/01/21 07:11:14;;;;;;;6.15;2.05;;;;;;;4.72;49.61;102273.97;6057240;23;122753;-84
2022/01/21 07:13:39;;;;;;;7.25;1.90;;;;;;;4.61;49.59;102263.00;6029294;23;122900;-84
2022/01/21 07:16:08;;;;;;;7.78;2.08;;;;;;;4.71;49.14;102272.41;6028986;23;119483;-84
2022/01/21 07:18:36;;;;;;;10.85;2.47;;;;;;;4.60;49.73;102249.78;6004758;23;119569;-82
2022/01/21 07:21:02;;;;;;;8.38;2.05;;;;;;;4.54;49.86;102241.19;6027329;23;120291;-84
2022/01/21 07:23:28;;;;;;;14.15;2.30;;;;;;;4.43;49.86;102228.59;6004287;23;123052;-82
2022/01/21 07:25:54;;;;;;;7.97;1.92;;;;;;;4.71;49.51;102266.97;6030365;23;119093;-85
2022/01/21 07:28:20;;;;;;;7.60;2.08;;;;;;;4.53;49.89;102260.56;6054726;23;119226;-84
2022/01/21 07:30:49;;;;;;;10.00;2.10;;;;;;;4.34;50.24;102228.91;6004788;23;121933;-83
2022/01/21 07:33:14;;;;;;;9.35;2.00;;;;;;;4.43;50.59;102253.06;6058880;23;119584;-85
2022/01/21 07:35:41;;;;;;;9.43;2.10;;;;;;;4.54;50.52;102271.06;6077627;23;122565;-85
2022/01/21 07:38:07;;;;;;;7.18;2.20;;;;;;;4.51;50.48;102268.31;6056101;23;118972;-82
2022/01/21 07:40:34;;;;;;;12.85;2.13;;;;;;;4.45;50.87;102253.47;6029574;23;121842;-84
2022/01/21 07:43:02;;;;;;;8.43;2.10;;;;;;;4.37;50.63;102235.53;6029910;23;122123;-84
2022/01/21 07:45:28;;;;;;;9.68;3.22;;;;;;;4.47;50.32;102251.94;6005578;23;119433;-85
2022/01/21 07:47:55;;;;;;;9.80;2.60;;;;;;;4.90;50.31;102301.38;6054766;23;121694;-85
2022/01/21 07:50:21;;;;;;;8.90;2.58;;;;;;;4.53;49.89;102241.56;6005329;23;122505;-85
2022/01/21 07:52:50;;;;;;;9.50;2.25;;;;;;;4.74;50.01;102262.78;6028065;23;119162;-85
2022/01/21 07:55:16;;;;;;;8.38;2.65;;;;;;;4.59;49.98;102229.19;6032635;23;121694;-84
2022/01/21 07:57:42;;;;;;;11.57;2.53;;;;;;;4.68;50.11;102240.53;6034037;23;119193;-83
2022/01/21 08:00:10;;;;;;;8.30;2.35;;;;;;;4.97;50.34;102262.59;6011340;23;119780;-84
2022/01/21 08:02:39;;;;;;;10.23;2.75;;;;;;;4.85;50.26;102250.84;6056659;23;121394;-84
2022/01/21 08:05:05;;;;;;;6.45;2.30;;;;;;;5.28;50.15;102302.19;6057380;23;119429;-84
2022/01/21 08:07:31;;;;;;;9.45;2.50;;;;;;;5.09;50.48;102254.97;6033587;23;121056;-84
2022/01/21 08:10:00;;;;;;;10.90;2.50;;;;;;;5.09;50.23;102246.03;6010852;23;121700;-82
2022/01/21 08:12:29;;;;;;;11.95;2.58;;;;;;;5.19;50.29;102259.72;6067216;22;119208;-84
2022/01/21 08:14:55;;;;;;;8.93;2.35;;;;;;;5.27;50.29;102266.03;6023538;23;120869;-85
2022/01/21 08:17:22;;;;;;;7.18;2.17;;;;;;;5.06;50.25;102231.25;6065044;23;119249;-85
2022/01/21 08:19:48;;;;;;;7.50;2.28;;;;;;;5.49;50.36;102286.03;6064199;23;120967;-84
2022/01/21 08:22:22;;;;;;;8.07;2.40;;;;;;;5.36;49.66;102263.75;6039838;23;122000;-83
2022/01/21 08:24:51;;;;;;;7.97;2.08;;;;;;;5.79;50.16;102326.72;6067098;23;119151;-85
2022/01/21 08:27:19;;;;;;;7.85;1.63;;;;;;;5.52;50.07;102277.91;6042877;23;121274;-86
2022/01/21 08:29:47;;;;;;;6.68;2.00;;;;;;;5.47;50.03;102253.75;6065296;23;121367;-84
2022/01/21 08:32:17;;;;;;;10.57;2.30;;;;;;;5.96;50.22;102326.13;6065732;23;118671;-83
2022/01/21 08:34:43;;;;;;;10.00;2.55;;;;;;;5.63;49.68;102255.41;6066441;23;118297;-85
2022/01/21 08:37:10;;;;;;;10.27;1.95;;;;;;;6.03;49.45;102311.75;6068323;23;119079;-85
2022/01/21 08:39:36;;;;;;;7.35;2.03;;;;;;;5.74;49.83;102269.91;6091348;23;119081;-84
2022/01/21 08:42:05;;;;;;;7.97;2.00;;;;;;;5.73;49.44;102265.63;6064564;23;122127;-85
2022/01/21 08:44:32;;;;;;;11.48;2.03;;;;;;;5.89;49.50;102282.44;6014705;23;118504;-84
2022/01/21 08:46:58;;;;;;;12.30;2.13;;;;;;;6.29;49.63;102332.56;6063990;23;119131;-84
2022/01/21 08:49:24;;;;;;;8.77;1.98;;;;;;;6.30;49.44;102323.22;6015152;23;121993;-83
2022/01/21 08:51:53;;;;;;;8.93;2.40;;;;;;;6.11;49.68;102297.03;6040522;23;119327;-86
2022/01/21 08:54:19;;;;;;;9.82;2.08;;;;;;;5.97;49.43;102264.25;6091266;23;118344;-84
2022/01/21 08:56:53;;;;;;;13.48;2.40;;;;;;;6.02;49.98;102267.41;6038649;23;121783;-82
2022/01/21 08:59:20;;;;;;;12.57;2.20;;;;;;;6.13;49.41;102284.56;6068680;23;118491;-84
2022/01/21 09:01:48;;;;;;;8.40;2.00;;;;;;;6.20;49.52;102285.81;6038321;23;121666;-85
2022/01/21 09:04:16;;;;;;;11.98;2.38;;;;;;;6.62;49.27;102345.97;6063828;23;119090;-85
2022/01/21 09:06:43;;;;;;;9.30;2.67;;;;;;;6.39;49.35;102310.81;6016045;23;121217;-83
2022/01/21 09:09:09;;;;;;;11.50;3.15;;;;;;;6.72;50.12;102347.19;6015104;23;121992;-85
2022/01/21 09:11:36;;;;;;;11.00;2.42;;;;;;;6.57;50.15;102316.34;6063297;23;118367;-83
2022/01/21 09:14:03;;;;;;;12.05;2.95;;;;;;;6.42;49.63;102284.75;6063488;23;121042;-83
2022/01/21 09:16:29;;;;;;;12.05;3.30;;;;;;;6.88;50.28;102339.47;6063083;23;122415;-82
2022/01/21 09:19:01;;;;;;;8.48;2.60;;;;;;;6.53;49.62;102273.88;6063198;23;118403;-84
2022/01/21 09:21:33;;;;;;;15.07;3.30;;;;;;;6.77;50.30;102295.78;6043290;23;118859;-84
2022/01/21 09:23:59;;;;;;;9.75;2.47;;;;;;;6.67;50.19;102276.66;6038750;23;119280;-84
2022/01/21 09:26:27;;;;;;;9.23;3.28;;;;;;;6.74;49.85;102274.75;6062797;23;119591;-83
2022/01/21 09:28:54;;;;;;;12.13;3.20;;;;;;;7.29;50.10;102341.91;6059023;23;122988;-83
2022/01/21 09:31:23;;;;;;;16.77;3.53;;;;;;;7.37;50.68;102344.28;6054360;23;119198;-84
2022/01/21 09:33:48;;;;;;;12.98;3.40;;;;;;;7.15;50.09;102306.41;6007988;23;121274;-84
2022/01/21 09:36:16;;;;;;;10.20;2.38;;;;;;;7.43;50.72;102341.97;6031184;23;119302;-83
2022/01/21 09:38:42;;;;;;;13.20;2.67;;;;;;;7.24;50.38;102309.53;6031579;23;119368;-84
2022/01/21 09:41:09;;;;;;;19.92;3.33;;;;;;;7.36;51.08;102315.44;6054870;23;121195;-84
2022/01/21 09:43:38;;;;;;;12.48;3.00;;;;;;;7.39;51.22;102303.72;6060691;23;121927;-84
2022/01/21 09:46:07;;;;;;;14.43;2.60;;;;;;;7.50;51.05;102311.13;6055850;23;121264;-84
2022/01/21 09:48:50;;;;;;;12.93;2.60;;;;;;;7.73;50.56;102344.31;6054852;23;123481;-84
2022/01/21 09:51:17;;;;;;;14.77;2.70;;;;;;;7.30;51.13;102278.75;6007422;23;120100;-84
2022/01/21 09:53:44;;;;;;;11.80;2.35;;;;;;;7.39;51.06;102284.63;6056175;23;119233;-84
2022/01/21 09:56:14;;;;;;;11.77;2.35;;;;;;;7.56;50.90;102301.38;6055170;23;119695;-84
2022/01/21 09:58:45;;;;;;;11.25;2.67;;;;;;;7.53;51.56;102291.25;6031787;23;119670;-84
2022/01/21 10:01:18;;;;;;;9.68;2.17;;;;;;;7.76;51.28;102312.69;6031066;23;121087;-84
2022/01/21 10:03:48;;;;;;;12.38;2.78;;;;;;;7.54;51.89;102270.97;6055836;23;122335;-84
2022/01/21 10:06:14;;;;;;;13.65;2.97;;;;;;;7.86;52.15;102315.44;6011102;23;119236;-84
2022/01/21 10:08:41;;;;;;;13.18;2.58;;;;;;;7.75;52.17;102292.03;6056308;23;121909;-83
2022/01/21 10:11:09;;;;;;;15.48;3.08;;;;;;;8.01;52.21;102327.91;6056125;23;119517;-84
2022/01/21 10:13:35;;;;;;;15.23;3.17;;;;;;;7.98;52.63;102314.25;6083609;23;119793;-82
2022/01/21 10:16:04;;;;;;;16.15;3.13;;;;;;;8.10;52.85;102322.06;6031906;23;121700;-82
2022/01/21 10:18:30;;;;;;;18.95;3.22;;;;;;;7.96;53.71;102281.06;6051626;23;120552;-83
2022/01/21 10:20:57;;;;;;;15.00;3.40;;;;;;;8.17;53.50;102283.75;6056575;23;119608;-83
2022/01/21 10:23:28;;;;;;;20.35;3.50;;;;;;;8.25;53.82;102295.44;6032621;23;121510;-83
2022/01/21 10:26:09;;;;;;;17.58;3.10;;;;;;;8.39;54.55;102298.19;6063240;23;119967;-84
2022/01/21 10:28:35;;;;;;;20.52;3.47;;;;;;;8.44;54.67;102286.81;6083117;23;121942;-84
2022/01/21 10:31:22;;;;;;;18.08;3.55;;;;;;;8.52;54.59;102279.41;6060991;23;119797;-83
2022/01/21 10:33:54;;;;;;;15.23;3.33;;;;;;;8.66;54.40;102279.31;6010939;23;120943;-82
2022/01/21 10:36:32;;;;;;;19.92;4.20;;;;;;;9.20;54.36;102354.50;6058471;23;119697;-84
2022/01/21 10:39:14;;;;;;;15.98;3.45;;;;;;;8.92;54.58;102291.69;6087052;23;119779;-81
2022/01/21 10:41:49;;;;;;;18.83;4.07;;;;;;;8.99;54.16;102291.66;6036923;23;121280;-82
2022/01/21 10:44:20;;;;;;;18.58;3.60;;;;;;;8.91;54.78;102268.25;6061399;23;121920;-82
2022/01/21 10:47:13;;;;;;;17.88;3.92;;;;;;;9.21;54.47;102298.53;6038754;23;119514;-81
2022/01/21 10:49:41;;;;;;;17.67;4.32;;;;;;;9.46;55.03;102319.50;6035601;23;120566;-84
2022/01/21 10:52:11;;;;;;;20.77;4.47;;;;;;;9.29;54.45;102277.38;6014846;23;119374;-84
2022/01/21 10:54:43;;;;;;;21.65;5.45;;;;;;;9.79;54.87;102331.78;6039920;23;121724;-82
2022/01/21 10:57:14;;;;;;;24.92;5.72;;;;;;;9.54;54.55;102275.22;6088478;23;119493;-83
2022/01/21 11:00:10;;;;;;;21.67;3.47;;;;;;;9.94;55.14;102326.97;6063797;22;119406;-82
2022/01/21 11:02:36;;;;;;;21.88;4.00;;;;;;;9.96;54.28;102319.13;6065139;22;119224;-82
2022/01/21 11:05:16;;;;;;;14.80;3.42;;;;;;;9.84;54.11;102296.50;6090075;22;119065;-80
2022/01/21 11:08:05;;;;;;;17.85;4.10;;;;;;;9.61;54.29;102262.66;6065782;23;119399;-83
2022/01/21 11:10:39;;;;;;;20.77;3.92;;;;;;;10.03;54.09;102321.78;6017344;23;121565;-82
2022/01/21 11:13:18;;;;;;;19.25;4.03;;;;;;;10.07;54.00;102319.78;6021820;23;121517;-82
2022/01/21 11:16:20;;;;;;;15.48;4.10;;;;;;;10.08;54.83;102324.06;6019453;23;120952;-82
2022/01/21 11:19:15;;;;;;;18.80;3.85;;;;;;;9.80;53.82;102276.56;5977818;23;119410;-82
2022/01/21 11:21:44;;;;;;;17.70;3.60;;;;;;;10.06;54.04;102302.56;5979010;23;118846;-82
2022/01/21 11:24:11;;;;;;;16.77;3.00;;;;;;;10.13;54.36;102312.66;6002220;23;119398;-81
2022/01/21 11:26:40;;;;;;;18.58;3.58;;;;;;;10.13;54.29;102307.19;6001256;23;119049;-80
2022/01/21 11:29:10;;;;;;;19.35;3.53;;;;;;;10.07;53.88;102292.38;5978574;23;118469;-82
2022/01/21 11:31:38;;;;;;;17.17;3.30;;;;;;;10.13;54.11;102301.69;5978051;23;119159;-82
2022/01/21 11:34:07;;;;;;;17.17;3.47;;;;;;;10.18;54.20;102304.00;5977795;23;119747;-82
2022/01/21 11:36:33;;;;;;;17.13;2.88;;;;;;;10.06;53.89;102261.44;6007012;23;119100;-81
2022/01/21 11:39:03;;;;;;;18.90;3.53;;;;;;;10.22;54.85;102279.31;5975763;23;122125;-81
2022/01/21 11:41:44;;;;;;;16.83;3.22;;;;;;;10.22;54.67;102271.88;5993121;23;118589;-84
2022/01/21 11:44:12;;;;;;;23.05;3.83;;;;;;;10.26;55.51;102250.66;5964362;23;120614;-84
2022/01/21 11:46:47;;;;;;;17.75;3.20;;;;;;;10.35;54.40;102270.13;5984337;23;120201;-81
2022/01/21 11:49:19;;;;;;;20.85;3.55;;;;;;;10.30;54.62;102262.34;5983890;23;118979;-84
2022/01/21 11:51:45;;;;;;;18.90;3.80;;;;;;;10.30;54.25;102264.31;5964495;23;120494;-82
2022/01/21 11:54:13;;;;;;;18.48;4.60;;;;;;;10.37;54.34;102273.25;5958717;23;121509;-82
2022/01/21 11:57:17;;;;;;;20.17;3.58;;;;;;;10.35;55.63;102272.88;6001747;23;118636;-81
2022/01/21 12:00:39;;;;;;;15.03;3.57;;;;;;;10.31;54.71;102279.59;5957464;23;120458;-83
2022/01/21 12:03:06;;;;;;;18.08;4.05;;;;;;;10.06;54.94;102252.41;6065916;23;118842;-82
2022/01/21 12:05:34;;;;;;;23.60;4.03;;;;;;;10.02;55.35;102229.75;6042275;22;120937;-81
2022/01/21 12:08:55;;;;;;;22.98;4.15;;;;;;;10.05;55.40;102237.16;6067721;23;120399;-82
2022/01/21 12:11:51;;;;;;;23.25;3.88;;;;;;;10.22;55.22;102244.44;6067897;23;119272;-83
2022/01/21 12:14:36;;;;;;;26.48;4.22;;;;;;;10.22;55.04;102238.19;6040208;22;119274;-82
2022/01/21 12:17:16;;;;;;;23.00;4.00;;;;;;;9.96;55.30;102206.72;6017672;23;122700;-81